Time;durP1;ratioP1;P1;durP2;ratioP2;P2;SDS_P1;SDS_P2;PMS_P1;PMS_P2;Temp;Humidity;BMP_temperature;BMP_pressure;BME280_temperature;BME280_humidity;BME280_pressure;Samples;Min_cycle;Max_cycle;Signal;HPM_P1;HPM_P2
2021/07/05 00:00:17;;;;;;;5.80;4.37;;;15.80;99.80;;;;;;4907519;29;20468;-85
2021/07/05 00:02:46;;;;;;;11.70;4.33;;;15.80;99.80;;;;;;4912663;29;20458;-85
2021/07/05 00:05:15;;;;;;;3.83;3.53;;;15.80;99.80;;;;;;4914782;29;20520;-85
2021/07/05 00:07:46;;;;;;;6.70;4.00;;;15.80;99.80;;;;;;4912649;29;20463;-85
2021/07/05 00:10:16;;;;;;;14.20;4.27;;;15.80;99.80;;;;;;4915259;29;20475;-85
2021/07/05 00:12:46;;;;;;;28.13;4.87;;;15.80;99.80;;;;;;4914953;29;20582;-84
2021/07/05 00:15:19;;;;;;;6.43;3.83;;;15.80;99.80;;;;;;4912911;29;20464;-85
2021/07/05 00:17:50;;;;;;;7.53;4.00;;;15.80;99.80;;;;;;4916261;29;20481;-85
2021/07/05 00:20:19;;;;;;;4.57;4.07;;;15.80;99.80;;;;;;4914955;29;20451;-84
2021/07/05 00:22:48;;;;;;;4.00;3.60;;;15.80;99.80;;;;;;4913661;29;20470;-85
2021/07/05 00:25:17;;;;;;;9.13;4.50;;;15.80;99.80;;;;;;4911885;29;20821;-85
2021/07/05 00:27:45;;;;;;;4.60;4.20;;;15.90;99.80;;;;;;4917193;29;20475;-84
2021/07/05 00:30:16;;;;;;;4.97;4.27;;;15.90;99.80;;;;;;4914980;29;20475;-85
2021/07/05 00:32:45;;;;;;;4.53;4.13;;;16.00;99.80;;;;;;4911615;29;20475;-85
2021/07/05 00:35:18;;;;;;;4.90;4.33;;;15.90;99.80;;;;;;4914853;29;20475;-85
2021/07/05 00:37:46;;;;;;;9.53;4.60;;;15.90;99.80;;;;;;4916998;29;20476;-85
2021/07/05 00:40:16;;;;;;;6.20;4.77;;;15.90;99.80;;;;;;4919622;29;20458;-85
2021/07/05 00:42:45;;;;;;;21.13;6.40;;;15.80;99.80;;;;;;4918140;29;20859;-84
2021/07/05 00:45:16;;;;;;;6.43;4.30;;;15.80;99.80;;;;;;4919585;29;20893;-84
2021/07/05 00:47:44;;;;;;;5.00;4.50;;;15.80;99.80;;;;;;4888498;29;20504;-85
2021/07/05 00:50:16;;;;;;;6.97;4.00;;;15.70;99.80;;;;;;4913140;29;20481;-84
2021/07/05 00:52:45;;;;;;;6.13;4.70;;;15.70;99.80;;;;;;4912810;29;20487;-85
2021/07/05 00:55:15;;;;;;;9.07;4.63;;;15.70;99.80;;;;;;4909017;29;20484;-85
2021/07/05 00:57:43;;;;;;;11.93;4.77;;;15.70;99.80;;;;;;4911819;29;20471;-85
2021/07/05 01:00:13;;;;;;;13.67;5.10;;;15.70;99.80;;;;;;4908477;29;20473;-85
2021/07/05 01:02:42;;;;;;;11.03;4.30;;;15.70;99.80;;;;;;4905012;29;20480;-85
2021/07/05 01:05:12;;;;;;;4.80;4.30;;;15.70;99.80;;;;;;4906712;29;21052;-85
2021/07/05 01:07:42;;;;;;;7.73;4.40;;;15.70;99.80;;;;;;4902034;29;21017;-85
2021/07/05 01:10:12;;;;;;;8.50;4.40;;;15.70;99.80;;;;;;4907202;29;20854;-85
2021/07/05 01:12:40;;;;;;;4.50;4.10;;;15.70;99.80;;;;;;4893316;29;20495;-85
2021/07/05 01:15:11;;;;;;;5.77;3.70;;;15.70;99.80;;;;;;4901468;29;20542;-85
2021/07/05 01:17:39;;;;;;;8.23;4.10;;;15.70;99.80;;;;;;4911394;29;20483;-85
2021/07/05 01:20:09;;;;;;;4.43;4.03;;;15.60;99.80;;;;;;4912102;29;20490;-85
2021/07/05 01:22:38;;;;;;;4.07;3.67;;;15.50;99.80;;;;;;4907649;29;20470;-85
2021/07/05 01:25:10;;;;;;;8.53;4.70;;;15.60;99.80;;;;;;4905493;29;20546;-86
2021/07/05 01:27:38;;;;;;;5.00;4.50;;;15.60;99.80;;;;;;4909257;29;20882;-85
2021/07/05 01:30:08;;;;;;;5.50;4.10;;;15.50;99.80;;;;;;4908520;29;20487;-85
2021/07/05 01:32:36;;;;;;;7.23;5.03;;;15.60;99.80;;;;;;4908216;29;20492;-85
2021/07/05 01:35:05;;;;;;;5.43;4.93;;;15.60;99.80;;;;;;4898962;29;20493;-85
2021/07/05 01:37:33;;;;;;;6.07;4.67;;;15.70;99.80;;;;;;4905770;29;20499;-84
2021/07/05 01:40:04;;;;;;;9.70;4.83;;;15.70;99.80;;;;;;4901420;29;20493;-85
2021/07/05 01:42:32;;;;;;;4.93;4.30;;;15.70;99.80;;;;;;4916090;29;20489;-85
2021/07/05 01:45:00;;;;;;;6.20;5.10;;;15.70;99.80;;;;;;4908522;29;20498;-85
2021/07/05 01:47:28;;;;;;;9.07;4.43;;;15.70;99.80;;;;;;4909036;29;20558;-84
2021/07/05 01:49:56;;;;;;;7.70;4.90;;;15.60;99.80;;;;;;4911181;29;20478;-85
2021/07/05 01:52:24;;;;;;;7.23;4.47;;;15.60;99.80;;;;;;4911553;29;20848;-85
2021/07/05 01:54:52;;;;;;;5.90;5.27;;;15.60;99.80;;;;;;4911087;29;20467;-85
2021/07/05 01:57:29;;;;;;;5.97;4.63;;;15.60;99.80;;;;;;4908028;29;20490;-85
2021/07/05 02:00:00;;;;;;;9.33;5.70;;;15.50;99.80;;;;;;4900588;29;20459;-84
2021/07/05 02:02:29;;;;;;;9.40;5.50;;;15.50;99.80;;;;;;4924158;29;20548;-85
2021/07/05 02:04:57;;;;;;;8.43;4.77;;;15.50;99.80;;;;;;4915160;29;20476;-84
2021/07/05 02:07:25;;;;;;;7.60;4.73;;;15.50;99.80;;;;;;4914267;29;20464;-85
2021/07/05 02:09:52;;;;;;;4.80;4.30;;;15.50;99.80;;;;;;4914373;29;20453;-85
2021/07/05 02:12:22;;;;;;;9.47;5.40;;;15.50;99.80;;;;;;4916546;29;20498;-84
2021/07/05 02:14:50;;;;;;;5.90;5.30;;;15.60;99.80;;;;;;4915120;29;20466;-85
2021/07/05 02:17:18;;;;;;;7.00;5.20;;;15.60;99.80;;;;;;4916020;29;20456;-84
2021/07/05 02:19:46;;;;;;;7.63;5.60;;;15.70;99.80;;;;;;4903962;28;20471;-84
2021/07/05 02:22:14;;;;;;;7.87;5.30;;;15.70;99.80;;;;;;4910808;29;20515;-85
2021/07/05 02:24:42;;;;;;;12.33;5.40;;;;;;;;;;4901686;29;20580;-85
2021/07/05 02:27:10;;;;;;;6.83;6.00;;;15.80;99.80;;;;;;4902834;29;20484;-85
2021/07/05 02:29:39;;;;;;;9.10;5.50;;;15.80;99.80;;;;;;4909876;29;20471;-85
2021/07/05 02:32:08;;;;;;;6.20;5.10;;;15.80;99.80;;;;;;4903671;29;20475;-84
2021/07/05 02:34:36;;;;;;;6.20;5.27;;;15.90;99.80;;;;;;4905789;29;20504;-85
2021/07/05 02:37:04;;;;;;;5.10;4.70;;;15.80;99.80;;;;;;4911436;29;20846;-84
2021/07/05 02:39:32;;;;;;;8.83;5.27;;;15.90;99.80;;;;;;4901216;29;20472;-85
2021/07/05 02:42:00;;;;;;;6.00;5.40;;;;;;;;;;4898901;29;20487;-85
2021/07/05 02:44:28;;;;;;;6.67;5.67;;;15.90;99.80;;;;;;4908114;29;20977;-85
2021/07/05 02:46:58;;;;;;;10.03;5.20;;;15.90;99.80;;;;;;4907550;29;20484;-85
2021/07/05 02:49:26;;;;;;;5.93;5.30;;;15.90;99.80;;;;;;4909383;29;21997;-85
2021/07/05 02:51:54;;;;;;;6.03;5.43;;;15.90;99.80;;;;;;4908263;29;20468;-84
2021/07/05 02:54:22;;;;;;;9.40;5.80;;;15.90;99.80;;;;;;4907884;29;20493;-84
2021/07/05 02:56:50;;;;;;;9.10;5.90;;;;;;;;;;4905624;29;20483;-85
2021/07/05 02:59:18;;;;;;;10.73;6.60;;;15.80;99.80;;;;;;4901724;29;20487;-85
2021/07/05 03:01:46;;;;;;;6.57;5.47;;;15.80;99.80;;;;;;4914944;29;20486;-84
2021/07/05 03:04:16;;;;;;;12.00;6.43;;;15.80;99.80;;;;;;4907616;29;20473;-85
2021/07/05 03:06:44;;;;;;;15.60;5.93;;;;;;;;;;4898513;29;21015;-85
2021/07/05 03:09:12;;;;;;;8.93;5.70;;;;;;;;;;4895260;29;20480;-85
2021/07/05 03:11:41;;;;;;;7.30;6.07;;;15.90;99.80;;;;;;4900799;29;20513;-85
2021/07/05 03:14:09;;;;;;;10.80;6.27;;;15.90;99.80;;;;;;4896610;29;20864;-84
2021/07/05 03:16:37;;;;;;;6.03;5.43;;;15.90;99.80;;;;;;4891886;29;20483;-84
2021/07/05 03:19:05;;;;;;;13.40;6.43;;;15.90;99.80;;;;;;4906607;29;20500;-85
2021/07/05 03:21:34;;;;;;;6.47;5.80;;;15.90;99.80;;;;;;4904606;29;20470;-85
2021/07/05 03:24:02;;;;;;;8.37;5.43;;;15.90;99.80;;;;;;4888765;29;20498;-85
2021/07/05 03:26:30;;;;;;;8.80;6.03;;;15.90;99.80;;;;;;4895215;29;20486;-85
2021/07/05 03:28:58;;;;;;;8.30;6.73;;;16.00;99.80;;;;;;4902159;29;20468;-85
2021/07/05 03:31:27;;;;;;;8.83;6.53;;;;;;;;;;4896533;29;21239;-85
2021/07/05 03:33:55;;;;;;;8.13;5.73;;;16.00;99.80;;;;;;4905750;29;20504;-85
2021/07/05 03:36:23;;;;;;;7.70;5.93;;;;;;;;;;4905253;29;20475;-84
2021/07/05 03:38:52;;;;;;;9.10;6.10;;;16.10;99.80;;;;;;4899541;29;20484;-85
2021/07/05 03:41:20;;;;;;;13.13;6.43;;;16.10;99.80;;;;;;4905695;29;20492;-85
2021/07/05 03:43:48;;;;;;;6.43;5.63;;;;;;;;;;4899664;29;20838;-85
2021/07/05 03:46:16;;;;;;;14.53;6.13;;;16.10;99.80;;;;;;4900860;29;20479;-84
2021/07/05 03:48:45;;;;;;;7.97;6.17;;;16.10;99.80;;;;;;4898598;29;20469;-85
2021/07/05 03:51:13;;;;;;;7.40;6.43;;;16.20;99.80;;;;;;4898488;29;20483;-85
2021/07/05 03:53:41;;;;;;;7.00;6.03;;;16.20;99.80;;;;;;4903676;29;20488;-85
2021/07/05 03:56:10;;;;;;;10.30;6.50;;;16.20;99.80;;;;;;4905581;29;20486;-85
2021/07/05 03:58:38;;;;;;;7.30;5.87;;;16.30;99.80;;;;;;4894893;29;20491;-84
2021/07/05 04:01:06;;;;;;;9.73;6.07;;;16.30;99.80;;;;;;4915933;29;20481;-85
2021/07/05 04:03:34;;;;;;;15.73;7.80;;;16.30;99.80;;;;;;4913126;29;20464;-85
2021/07/05 04:06:03;;;;;;;8.07;6.37;;;;;;;;;;4904861;29;20487;-83
2021/07/05 04:08:33;;;;;;;8.57;6.03;;;16.40;99.80;;;;;;4912056;29;20494;-83
2021/07/05 04:11:02;;;;;;;10.50;6.70;;;16.40;99.80;;;;;;4900765;29;20491;-83
2021/07/05 04:13:31;;;;;;;9.00;6.63;;;16.50;99.80;;;;;;4913430;29;20483;-83
2021/07/05 04:16:00;;;;;;;13.37;5.93;;;;;;;;;;4907512;29;20526;-83
2021/07/05 04:18:28;;;;;;;6.77;6.03;;;16.50;99.80;;;;;;4912575;29;20502;-83
2021/07/05 04:20:56;;;;;;;7.40;6.53;;;;;;;;;;4921295;29;20516;-83
2021/07/05 04:23:25;;;;;;;7.57;5.77;;;16.70;99.80;;;;;;4900549;29;20473;-83
2021/07/05 04:25:54;;;;;;;11.43;5.97;;;16.70;99.80;;;;;;4902047;29;20490;-83
2021/07/05 04:28:23;;;;;;;9.47;5.90;;;16.80;99.80;;;;;;4893984;29;20483;-83
2021/07/05 04:30:52;;;;;;;10.40;5.60;;;16.80;99.80;;;;;;4898745;29;20563;-84
2021/07/05 04:33:20;;;;;;;8.03;5.10;;;16.90;99.80;;;;;;4912736;29;20845;-83
2021/07/05 04:35:48;;;;;;;12.93;5.93;;;16.90;99.80;;;;;;4915756;29;20495;-84
2021/07/05 04:38:16;;;;;;;7.73;6.40;;;16.90;99.80;;;;;;4913769;29;20611;-86
2021/07/05 04:40:45;;;;;;;8.67;5.63;;;16.90;99.80;;;;;;4917944;29;20857;-86
2021/07/05 04:43:13;;;;;;;10.87;6.07;;;17.00;99.80;;;;;;4902862;29;21186;-86
2021/07/05 04:45:44;;;;;;;8.87;5.63;;;17.00;99.80;;;;;;4901794;29;20485;-86
2021/07/05 04:48:14;;;;;;;7.83;5.40;;;16.90;99.80;;;;;;4909753;29;20500;-86
2021/07/05 04:50:42;;;;;;;5.70;4.80;;;16.90;99.80;;;;;;4905321;29;25049;-86
2021/07/05 04:53:10;;;;;;;8.60;5.97;;;16.90;99.80;;;;;;4898297;29;20565;-86
2021/07/05 04:55:41;;;;;;;6.13;5.23;;;17.00;99.80;;;;;;4907601;29;20533;-86
2021/07/05 04:58:09;;;;;;;9.67;5.50;;;17.00;99.80;;;;;;4908737;29;21222;-88
2021/07/05 05:00:37;;;;;;;6.00;5.40;;;;;;;;;;4899714;29;20484;-88
2021/07/05 05:03:06;;;;;;;5.10;4.70;;;17.00;99.80;;;;;;4912353;29;21193;-89
2021/07/05 05:05:40;;;;;;;5.63;4.43;;;17.00;99.80;;;;;;4908268;29;20493;-88
2021/07/05 05:08:09;;;;;;;4.70;4.30;;;17.00;99.80;;;;;;4904297;29;20487;-86
2021/07/05 05:10:39;;;;;;;5.40;4.57;;;17.10;99.80;;;;;;4904649;29;21012;-86
2021/07/05 05:13:07;;;;;;;5.40;4.50;;;17.10;99.80;;;;;;4898052;29;20474;-86
2021/07/05 05:15:35;;;;;;;7.43;4.97;;;17.10;99.80;;;;;;4902061;29;21144;-86
2021/07/05 05:18:04;;;;;;;5.30;4.80;;;17.10;99.80;;;;;;4913112;29;20473;-86
2021/07/05 05:20:33;;;;;;;5.50;4.67;;;17.10;99.80;;;;;;4907983;29;20564;-85
2021/07/05 05:23:02;;;;;;;6.40;5.40;;;17.20;99.80;;;;;;4903492;29;20525;-86
2021/07/05 05:25:30;;;;;;;7.20;4.70;;;17.20;99.80;;;;;;4903129;29;20496;-85
2021/07/05 05:27:58;;;;;;;6.07;4.90;;;17.30;99.80;;;;;;4897462;29;20490;-86
2021/07/05 05:30:27;;;;;;;8.87;4.40;;;17.30;99.80;;;;;;4892853;29;20485;-86
2021/07/05 05:32:56;;;;;;;9.03;5.07;;;17.40;99.80;;;;;;4904778;29;20468;-85
2021/07/05 05:35:25;;;;;;;7.43;5.83;;;17.40;99.80;;;;;;4908770;29;20889;-86
2021/07/05 05:37:56;;;;;;;6.07;5.47;;;17.40;99.80;;;;;;4901946;29;20568;-86
2021/07/05 05:40:26;;;;;;;6.77;5.00;;;17.40;99.80;;;;;;4893776;29;20481;-86
2021/07/05 05:42:55;;;;;;;6.13;5.50;;;17.40;99.80;;;;;;4906545;29;20488;-85
2021/07/05 05:45:23;;;;;;;11.13;6.03;;;17.30;99.80;;;;;;4902098;29;20503;-86
2021/07/05 05:47:51;;;;;;;7.20;5.87;;;17.30;99.80;;;;;;4908092;29;20517;-86
2021/07/05 05:50:20;;;;;;;6.43;5.57;;;17.20;99.80;;;;;;4902955;29;20491;-86
2021/07/05 05:52:48;;;;;;;7.73;5.33;;;17.20;99.80;;;;;;4912284;29;20481;-84
2021/07/05 05:55:17;;;;;;;7.93;5.43;;;;;;;;;;4895111;29;20552;-85
2021/07/05 05:57:47;;;;;;;5.87;5.27;;;17.10;99.80;;;;;;4912449;29;20520;-86
2021/07/05 06:00:19;;;;;;;6.43;5.40;;;17.10;99.80;;;;;;4908903;29;20476;-86
2021/07/05 06:02:49;;;;;;;6.33;5.60;;;17.00;99.80;;;;;;4926198;29;20492;-86
2021/07/05 06:05:17;;;;;;;6.27;5.77;;;17.00;99.80;;;;;;4909024;29;20471;-86
2021/07/05 06:07:49;;;;;;;7.20;5.30;;;17.00;99.80;;;;;;4906095;29;20577;-86
2021/07/05 06:10:19;;;;;;;7.07;5.83;;;17.00;99.80;;;;;;4902864;29;20504;-86
2021/07/05 06:12:49;;;;;;;8.60;5.33;;;17.00;99.80;;;;;;4911922;29;20481;-87
2021/07/05 06:15:19;;;;;;;6.43;5.83;;;16.90;99.80;;;;;;4907872;29;20480;-87
2021/07/05 06:17:48;;;;;;;7.70;6.10;;;16.90;99.80;;;;;;4912730;29;20496;-87
2021/07/05 06:20:17;;;;;;;6.47;5.87;;;17.00;99.80;;;;;;4911910;29;20484;-87
2021/07/05 06:23:07;;;;;;;10.27;5.70;;;17.00;99.80;;;;;;4914438;29;20485;-86
2021/07/05 06:25:35;;;;;;;6.27;5.67;;;17.10;99.80;;;;;;4909024;29;20486;-86
2021/07/05 06:28:05;;;;;;;7.53;5.50;;;17.10;99.80;;;;;;4911680;29;20490;-86
2021/07/05 06:30:33;;;;;;;7.40;6.70;;;17.10;99.80;;;;;;4910528;29;20476;-86
2021/07/05 06:33:01;;;;;;;7.73;5.20;;;17.20;99.80;;;;;;4911612;29;20482;-87
2021/07/05 06:35:31;;;;;;;12.23;5.80;;;17.20;99.80;;;;;;4898641;29;20499;-87
2021/07/05 06:37:59;;;;;;;6.60;5.73;;;17.20;99.80;;;;;;4894481;29;20557;-87
2021/07/05 06:40:28;;;;;;;7.83;5.97;;;17.20;99.80;;;;;;4896784;29;20499;-87
2021/07/05 08:09:20;;;;;;;4.53;4.13;;;18.90;99.80;;;;;;4945286;28;20455;-90
2021/07/05 08:11:48;;;;;;;7.43;4.10;;;18.90;99.80;;;;;;4937913;28;20472;-92
2021/07/05 08:14:16;;;;;;;6.30;4.77;;;18.90;99.80;;;;;;4938064;28;20487;-92
2021/07/05 08:16:44;;;;;;;8.33;4.23;;;;;;;;;;4946484;28;20472;-92
2021/07/05 08:19:12;;;;;;;4.33;4.00;;;19.00;99.80;;;;;;4945567;28;20471;-92
2021/07/05 08:21:41;;;;;;;4.63;4.30;;;19.10;99.80;;;;;;4940910;28;20490;-90
2021/07/05 08:24:09;;;;;;;8.20;4.03;;;19.10;99.80;;;;;;4938390;28;20476;-89
2021/07/05 08:26:40;;;;;;;4.50;4.10;;;19.10;99.80;;;;;;4945302;28;20487;-90
2021/07/05 08:29:08;;;;;;;7.30;4.63;;;19.20;99.80;;;;;;4933759;28;20451;-89
2021/07/05 08:31:36;;;;;;;5.60;3.97;;;19.40;99.80;;;;;;4943761;28;20857;-90
2021/07/05 08:34:04;;;;;;;4.20;3.90;;;19.80;99.80;;;;;;4947832;28;20825;-90
2021/07/05 08:36:35;;;;;;;4.70;4.20;;;20.10;99.80;;;;;;4949380;28;20477;-89
2021/07/05 08:39:40;;;;;;;17.13;4.00;;;20.30;99.80;;;;;;4948913;28;20483;-92
2021/07/05 08:42:09;;;;;;;4.13;3.83;;;20.50;99.80;;;;;;4938030;28;20577;-91
2021/07/05 08:44:40;;;;;;;4.20;3.80;;;20.60;99.80;;;;;;4946346;28;20472;-90
2021/07/05 08:47:10;;;;;;;3.40;3.20;;;20.50;99.80;;;;;;4948562;28;20491;-90
2021/07/05 08:49:40;;;;;;;4.30;3.87;;;20.40;99.80;;;;;;4948791;28;20510;-90
2021/07/05 08:52:08;;;;;;;3.87;3.57;;;20.30;99.80;;;;;;4944299;28;20483;-90
2021/07/05 08:54:36;;;;;;;3.40;3.20;;;;;;;;;;4939763;28;20918;-89
2021/07/05 08:57:05;;;;;;;6.57;3.67;;;20.20;99.80;;;;;;4944497;28;20593;-90
2021/07/05 08:59:37;;;;;;;3.60;3.40;;;20.30;99.80;;;;;;4943630;28;20864;-89
2021/07/05 09:02:06;;;;;;;3.93;3.23;;;20.50;99.80;;;;;;4944666;28;20471;-89
2021/07/05 09:04:35;;;;;;;4.90;3.23;;;20.70;99.80;;;;;;4944062;28;21040;-89
2021/07/05 09:07:06;;;;;;;4.93;3.47;;;20.90;99.80;;;;;;4945249;28;20474;-89
2021/07/05 09:09:35;;;;;;;4.43;3.20;;;21.00;99.80;;;;;;4946621;28;20478;-88
2021/07/05 09:12:06;;;;;;;4.10;3.20;;;21.10;99.80;;;;;;4947005;28;20977;-89
2021/07/05 09:14:37;;;;;;;3.37;3.07;;;21.10;99.80;;;;;;4943080;28;20472;-89
2021/07/05 09:17:09;;;;;;;6.30;2.73;;;21.20;99.80;;;;;;4955346;28;20475;-89
2021/07/05 09:19:39;;;;;;;3.47;2.73;;;21.30;99.80;;;;;;4957152;28;20475;-89
2021/07/05 09:22:08;;;;;;;3.00;2.80;;;21.30;99.80;;;;;;4951360;28;20564;-92
2021/07/05 09:24:38;;;;;;;3.30;2.90;;;21.30;99.80;;;;;;4942212;28;20483;-90
2021/07/05 09:27:10;;;;;;;7.53;3.70;;;21.30;99.80;;;;;;4947241;28;20476;-91
2021/07/05 09:29:41;;;;;;;6.13;3.13;;;21.40;99.80;;;;;;4944910;28;20978;-88
2021/07/05 09:32:10;;;;;;;3.30;3.10;;;21.60;99.80;;;;;;4942777;28;20480;-87
2021/07/05 09:34:41;;;;;;;3.10;2.90;;;21.80;99.80;;;;;;4941043;28;20468;-89
2021/07/05 09:37:20;;;;;;;3.40;3.10;;;21.70;99.80;;;;;;4945663;28;20482;-88
2021/07/05 09:40:11;;;;;;;5.20;2.80;;;21.70;99.80;;;;;;4937314;28;20547;-88
2021/07/05 09:42:42;;;;;;;4.20;2.90;;;21.60;99.80;;;;;;4939323;28;20561;-87
2021/07/05 09:45:32;;;;;;;2.90;2.70;;;21.80;99.80;;;;;;4940658;28;20471;-88
2021/07/05 09:48:13;;;;;;;6.10;2.87;;;21.90;99.80;;;;;;4953667;28;20472;-89
2021/07/05 09:50:42;;;;;;;3.00;2.77;;;22.10;99.80;;;;;;4952363;28;20455;-90
2021/07/05 09:53:25;;;;;;;3.17;2.90;;;22.20;99.80;;;;;;4952698;28;20472;-89
2021/07/05 09:55:53;;;;;;;2.63;2.43;;;22.40;99.80;;;;;;4946646;28;20491;-89
2021/07/05 09:58:31;;;;;;;2.60;2.40;;;22.50;99.80;;;;;;4947002;28;20488;-88
2021/07/05 10:01:00;;;;;;;4.10;3.00;;;22.60;99.80;;;;;;4948497;28;20543;-88
2021/07/05 10:03:36;;;;;;;3.10;2.83;;;22.50;99.80;;;;;;4955241;28;20476;-89
2021/07/05 10:06:16;;;;;;;2.90;2.57;;;22.30;99.80;;;;;;4937420;28;20479;-88
2021/07/05 10:08:44;;;;;;;3.40;3.20;;;;;;;;;;4944424;28;20501;-87
2021/07/05 10:11:12;;;;;;;3.40;3.20;;;22.20;99.80;;;;;;4943384;28;20471;-89
2021/07/05 10:13:40;;;;;;;2.93;2.73;;;22.40;99.80;;;;;;4947912;28;20486;-89
2021/07/05 10:16:13;;;;;;;4.80;3.30;;;22.40;99.80;;;;;;4949576;28;20840;-88
2021/07/05 10:18:42;;;;;;;4.00;3.57;;;22.30;99.80;;;;;;4951080;28;20479;-88
2021/07/05 10:21:13;;;;;;;6.70;3.30;;;22.00;99.80;;;;;;4952096;28;20502;-90
2021/07/05 10:23:43;;;;;;;3.80;3.50;;;21.90;99.80;;;;;;4951954;28;21058;-87
2021/07/05 10:26:11;;;;;;;4.40;3.70;;;21.90;99.80;;;;;;4942925;28;20494;-89
2021/07/05 10:28:40;;;;;;;7.23;4.23;;;21.90;99.80;;;;;;4944950;28;20476;-88
2021/07/05 10:31:13;;;;;;;3.80;3.50;;;21.90;99.80;;;;;;4944600;28;20503;-89
2021/07/05 10:33:41;;;;;;;4.17;3.87;;;;;;;;;;4952196;28;20472;-89
2021/07/05 10:36:11;;;;;;;5.80;4.17;;;21.60;99.80;;;;;;4947854;28;20484;-86
2021/07/05 10:38:44;;;;;;;3.67;3.27;;;21.50;99.80;;;;;;4943453;28;20841;-86
2021/07/05 10:41:15;;;;;;;5.20;2.87;;;21.70;99.80;;;;;;4944609;28;20482;-87
2021/07/05 10:43:50;;;;;;;2.60;2.40;;;21.70;99.80;;;;;;4941750;28;21001;-86
2021/07/05 10:46:44;;;;;;;3.87;2.73;;;21.60;99.80;;;;;;4938108;28;20896;-87
2021/07/05 10:49:46;;;;;;;2.80;2.60;;;21.60;99.80;;;;;;4943574;28;20472;-88
2021/07/05 10:52:20;;;;;;;2.20;2.10;;;21.50;99.80;;;;;;4940090;28;20491;-90
2021/07/05 10:54:51;;;;;;;3.00;2.80;;;21.40;99.80;;;;;;4947621;28;20483;-90
2021/07/05 10:57:21;;;;;;;2.70;2.40;;;21.20;99.80;;;;;;4947118;28;20464;-87
2021/07/05 10:59:51;;;;;;;3.07;2.77;;;21.20;99.80;;;;;;4933596;28;20481;-89
2021/07/05 11:02:42;;;;;;;2.70;2.10;;;21.10;99.80;;;;;;4963327;28;20510;-88
2021/07/05 11:05:35;;;;;;;2.07;1.97;;;21.20;99.80;;;;;;4948450;28;20487;-88
2021/07/05 11:08:42;;;;;;;2.13;2.03;;;21.50;99.80;;;;;;4944611;28;20470;-88
2021/07/05 11:11:24;;;;;;;2.30;2.10;;;22.10;99.80;;;;;;4942576;28;20819;-88
2021/07/05 11:14:15;;;;;;;2.00;1.90;;;22.50;99.80;;;;;;4933945;28;20564;-91
2021/07/05 11:17:02;;;;;;;3.30;1.90;;;22.70;99.80;;;;;;4922975;29;20560;-91
2021/07/05 11:19:40;;;;;;;1.93;1.83;;;22.90;99.80;;;;;;4913068;29;20488;-91
2021/07/05 11:22:11;;;;;;;2.03;1.93;;;22.90;99.50;;;;;;4928464;29;20481;-91
2021/07/05 11:24:55;;;;;;;2.40;2.20;;;22.80;99.80;;;;;;4915432;29;20513;-89
2021/07/05 11:27:47;;;;;;;1.87;1.77;;;22.60;99.30;;;;;;4944112;28;20517;-92
2021/07/05 11:30:30;;;;;;;1.80;1.70;;;22.50;99.80;;;;;;4945874;28;20553;-92
2021/07/05 11:33:01;;;;;;;4.43;1.80;;;22.30;99.80;;;;;;4966877;28;20451;-91
2021/07/05 11:35:41;;;;;;;2.40;1.97;;;22.20;99.80;;;;;;4967152;28;20467;-90
2021/07/05 11:38:21;;;;;;;2.17;2.07;;;22.10;99.80;;;;;;4960074;28;20502;-91
2021/07/05 11:40:55;;;;;;;3.80;2.23;;;22.00;99.80;;;;;;4945365;28;20843;-90
2021/07/05 11:43:53;;;;;;;2.27;2.07;;;22.00;99.80;;;;;;4945370;28;20621;-91
2021/07/05 11:46:48;;;;;;;2.83;2.63;;;21.90;99.80;;;;;;4913193;28;20994;-91
2021/07/05 11:49:20;;;;;;;3.10;2.90;;;21.90;99.80;;;;;;4942396;28;20552;-92
2021/07/05 11:51:54;;;;;;;3.03;2.83;;;21.90;99.80;;;;;;4934751;28;20562;-91
2021/07/05 11:54:24;;;;;;;4.23;3.17;;;21.80;99.80;;;;;;4940156;28;20913;-91
2021/07/05 11:56:54;;;;;;;4.00;3.20;;;21.80;99.80;;;;;;4937962;28;20482;-91
2021/07/05 11:59:24;;;;;;;3.87;2.67;;;21.70;99.80;;;;;;4954935;28;20919;-91
2021/07/05 12:02:05;;;;;;;3.67;2.53;;;21.50;99.80;;;;;;4959289;28;20478;-84
2021/07/05 12:04:35;;;;;;;2.93;2.70;;;21.50;99.80;;;;;;4947729;28;20479;-89
2021/07/05 12:07:07;;;;;;;2.47;2.27;;;21.40;99.80;;;;;;4949008;28;20471;-89
2021/07/05 12:09:37;;;;;;;2.70;2.50;;;21.40;99.80;;;;;;4949401;28;20500;-89
2021/07/05 12:12:11;;;;;;;3.27;2.37;;;21.40;99.80;;;;;;4922190;28;20479;-89
2021/07/05 12:14:39;;;;;;;2.80;2.60;;;21.40;99.80;;;;;;4940410;28;20475;-90
2021/07/05 12:17:08;;;;;;;2.60;2.40;;;21.50;99.80;;;;;;4947089;28;20471;-89
2021/07/05 12:19:41;;;;;;;2.40;2.30;;;21.40;99.80;;;;;;4940901;28;20994;-89
2021/07/05 12:22:13;;;;;;;2.50;2.20;;;21.40;99.80;;;;;;4939861;28;20557;-89
2021/07/05 12:24:44;;;;;;;2.40;2.20;;;21.50;99.80;;;;;;4918251;29;20853;-89
2021/07/05 12:27:14;;;;;;;1.73;1.63;;;21.70;99.80;;;;;;4928229;29;20480;-89
2021/07/05 12:29:48;;;;;;;3.60;1.73;;;21.80;99.80;;;;;;4936774;28;20472;-88
2021/07/05 12:32:17;;;;;;;1.70;1.60;;;21.90;99.80;;;;;;4942238;28;20926;-88
2021/07/05 12:34:48;;;;;;;1.53;1.43;;;22.10;99.80;;;;;;4948604;28;20486;-89
2021/07/05 12:37:22;;;;;;;2.30;1.20;;;22.20;99.80;;;;;;4948004;28;20472;-88
2021/07/05 12:39:59;;;;;;;1.97;1.20;;;22.30;99.80;;;;;;4952314;28;20476;-89
2021/07/05 12:42:39;;;;;;;1.83;1.50;;;22.30;99.80;;;;;;4945878;28;20994;-84
2021/07/05 12:45:20;;;;;;;1.47;1.37;;;22.00;99.80;;;;;;4946575;28;20480;-85
2021/07/05 12:47:58;;;;;;;1.50;1.40;;;21.90;99.80;;;;;;4950596;28;20463;-88
2021/07/05 12:50:27;;;;;;;1.60;1.50;;;21.70;99.80;;;;;;4949550;28;21243;-88
2021/07/05 12:53:06;;;;;;;2.23;1.70;;;21.60;99.80;;;;;;4940439;28;21315;-88
2021/07/05 12:55:35;;;;;;;2.07;1.53;;;21.40;99.80;;;;;;4954500;23;20510;-85
2021/07/05 12:58:04;;;;;;;2.10;1.90;;;21.30;99.80;;;;;;4897141;29;20484;-85
2021/07/05 14:13:37;;;;;;;3.30;2.50;;;21.80;99.80;;;;;;4897350;28;20267;-85
2021/07/05 14:16:07;;;;;;;3.17;2.63;;;22.10;99.80;;;;;;4906946;29;20488;-85
2021/07/05 14:18:39;;;;;;;2.93;2.63;;;22.00;99.80;;;;;;4916718;29;20497;-86
2021/07/05 15:20:54;;;;;;;1.10;1.00;;;22.60;99.80;;;;;;6024169;23;21487;-85
2021/07/05 15:23:22;;;;;;;1.30;1.20;;;22.60;99.80;;;;;;4936458;28;20503;-85
2021/07/05 15:25:53;;;;;;;3.20;1.30;;;22.60;99.80;;;;;;4949376;28;20475;-86
2021/07/05 15:28:21;;;;;;;2.00;1.57;;;23.00;99.80;;;;;;4945479;28;20486;-86
2021/07/05 15:52:28;;;;;;;1.47;1.37;;;23.50;99.80;;;;;;5572644;23;20523;-83
2021/07/05 15:54:56;;;;;;;1.50;1.40;;;23.80;99.80;;;;;;4933302;28;20469;-84
2021/07/05 15:57:24;;;;;;;1.40;1.30;;;23.90;99.80;;;;;;4948436;28;20468;-83
2021/07/05 16:00:02;;;;;;;1.47;1.37;;;23.90;99.80;;;;;;4935716;28;20480;-85
2021/07/05 16:02:30;;;;;;;2.30;2.20;;;23.70;99.80;;;;;;4972784;28;21202;-86
2021/07/05 16:04:58;;;;;;;1.60;1.50;;;23.40;99.80;;;;;;4967659;28;20904;-85
2021/07/05 16:07:26;;;;;;;1.67;1.57;;;;;;;;;;4966838;28;20481;-85
2021/07/05 16:09:56;;;;;;;1.40;1.30;;;23.00;99.80;;;;;;4967045;28;20872;-86
2021/07/05 16:12:23;;;;;;;1.60;1.50;;;22.70;99.80;;;;;;4958844;28;20853;-86
2021/07/05 16:14:52;;;;;;;1.90;1.50;;;22.60;99.80;;;;;;4957963;28;20484;-86
2021/07/05 16:17:20;;;;;;;1.57;1.47;;;22.50;99.80;;;;;;4967092;28;20488;-86
2021/07/05 16:19:48;;;;;;;1.63;1.53;;;;;;;;;;4966453;28;20479;-86
2021/07/05 16:22:24;;;;;;;1.60;1.50;;;22.30;99.80;;;;;;4959610;28;20478;-86
2021/07/05 16:24:52;;;;;;;1.63;1.53;;;22.20;99.80;;;;;;4959864;28;20878;-86
2021/07/05 16:27:22;;;;;;;1.90;1.80;;;22.20;99.80;;;;;;4958152;28;20996;-86
2021/07/05 16:29:50;;;;;;;1.73;1.50;;;22.30;99.80;;;;;;4964578;28;20476;-85
2021/07/05 16:32:18;;;;;;;1.63;1.40;;;22.40;99.80;;;;;;4961446;28;20479;-85
2021/07/05 16:34:46;;;;;;;2.17;1.50;;;22.30;99.80;;;;;;4958200;28;20483;-86
2021/07/05 16:37:14;;;;;;;1.67;1.57;;;22.30;99.80;;;;;;4955601;28;20475;-85
2021/07/05 16:39:44;;;;;;;2.00;1.80;;;22.30;99.80;;;;;;4961852;28;20535;-86
2021/07/05 16:42:12;;;;;;;1.40;1.30;;;22.30;99.80;;;;;;4966308;28;20507;-86
2021/07/05 16:44:42;;;;;;;1.60;1.50;;;22.30;99.80;;;;;;4936479;28;20491;-86
2021/07/05 16:47:13;;;;;;;1.33;1.23;;;22.20;99.80;;;;;;4921859;29;21052;-85
2021/07/05 16:49:44;;;;;;;2.50;1.50;;;22.20;99.80;;;;;;4912437;29;20476;-86
2021/07/05 16:52:16;;;;;;;2.27;1.57;;;22.10;99.80;;;;;;4928711;29;20547;-87
2021/07/05 16:54:44;;;;;;;1.43;1.33;;;22.00;99.80;;;;;;4918560;29;20477;-85
2021/07/05 16:57:17;;;;;;;3.00;2.00;;;21.90;99.80;;;;;;4923758;29;20481;-86
2021/07/05 16:59:51;;;;;;;1.47;1.30;;;21.90;99.80;;;;;;4912459;29;20524;-86
2021/07/05 17:02:22;;;;;;;1.20;1.10;;;21.90;99.80;;;;;;4933978;29;20476;-86
2021/07/05 17:04:50;;;;;;;1.53;1.37;;;21.80;99.80;;;;;;4922314;29;20463;-86
2021/07/05 17:07:19;;;;;;;1.73;1.63;;;21.80;99.80;;;;;;4909634;29;20957;-86
2021/07/05 17:09:48;;;;;;;1.40;1.30;;;21.80;99.80;;;;;;4924081;29;20481;-87
2021/07/05 17:12:17;;;;;;;2.03;1.40;;;21.70;99.80;;;;;;4921961;29;20477;-85